Time;durP1;ratioP1;P1;durP2;ratioP2;P2;SDS_P1;SDS_P2;PMS_P1;PMS_P2;Temp;Humidity;BMP_temperature;BMP_pressure;BME280_temperature;BME280_humidity;BME280_pressure;Samples;Min_cycle;Max_cycle;Signal;HPM_P1;HPM_P2
2022/05/31 00:02:41;;;;;;;1.60;0.40;;;9.40;99.90;;;;;;10276010;28;20077;-84
2022/05/31 00:07:43;;;;;;;0.80;0.70;;;9.40;99.90;;;;;;10294473;28;20058;-85
2022/05/31 00:12:45;;;;;;;1.60;0.50;;;9.40;99.90;;;;;;10294576;28;20061;-83
2022/05/31 00:17:47;;;;;;;1.70;0.30;;;9.30;99.90;;;;;;10283655;28;20055;-85
2022/05/31 00:22:50;;;;;;;1.67;0.40;;;9.30;99.90;;;;;;10275212;28;20055;-84
2022/05/31 00:27:52;;;;;;;0.70;0.40;;;9.20;99.90;;;;;;10267185;28;20114;-86
2022/05/31 00:32:54;;;;;;;3.70;0.43;;;9.10;99.90;;;;;;10289746;28;20054;-85
2022/05/31 00:37:57;;;;;;;1.05;0.45;;;9.10;99.90;;;;;;10278365;28;20074;-85
2022/05/31 00:43:08;;;;;;;2.38;0.40;;;9.00;99.90;;;;;;10293150;28;20054;-86
2022/05/31 00:48:16;;;;;;;0.75;0.40;;;9.00;99.90;;;;;;10278577;28;20058;-85
2022/05/31 00:53:19;;;;;;;;;;;8.90;99.90;;;;;;10287236;28;20051;-86
2022/05/31 00:58:39;;;;;;;4.20;0.50;;;9.00;99.90;;;;;;10294314;28;19993;-86
2022/05/31 01:03:42;;;;;;;2.63;0.40;;;9.00;99.90;;;;;;10308136;28;20046;-87
2022/05/31 01:08:46;;;;;;;1.35;0.50;;;9.00;99.90;;;;;;10281269;28;20062;-86
2022/05/31 01:13:48;;;;;;;2.72;0.40;;;9.00;99.90;;;;;;10307791;28;20411;-85
2022/05/31 01:18:49;;;;;;;3.47;0.40;;;9.00;99.90;;;;;;10281749;28;20062;-86
2022/05/31 01:24:12;;;;;;;0.75;0.40;;;9.10;99.90;;;;;;10287790;28;20461;-86
2022/05/31 01:29:22;;;;;;;2.08;0.40;;;9.10;99.90;;;;;;10285222;28;20059;-85
2022/05/31 01:34:30;;;;;;;1.25;0.32;;;9.20;99.90;;;;;;10272367;28;20336;-86
2022/05/31 01:39:50;;;;;;;;;;;9.20;99.90;;;;;;10294935;28;20065;-86
2022/05/31 01:45:01;;;;;;;3.10;0.50;;;9.20;99.90;;;;;;10270968;28;19922;-86
2022/05/31 01:50:09;;;;;;;0.80;0.40;;;9.20;99.90;;;;;;10304019;28;20042;-86
2022/05/31 01:55:12;;;;;;;;;;;9.10;99.90;;;;;;10264418;28;20047;-86
2022/05/31 02:00:15;;;;;;;1.70;0.50;;;9.10;99.90;;;;;;10291013;28;19928;-86
2022/05/31 02:05:20;;;;;;;2.15;0.40;;;9.10;99.90;;;;;;10289994;28;20057;-86
2022/05/31 02:10:23;;;;;;;2.15;0.55;;;9.10;99.90;;;;;;10271666;28;20050;-86
2022/05/31 02:15:25;;;;;;;1.20;0.47;;;9.10;99.90;;;;;;10286951;28;20511;-87
2022/05/31 02:20:27;;;;;;;1.42;0.43;;;9.00;99.90;;;;;;10277226;28;20651;-86
2022/05/31 02:25:29;;;;;;;1.42;0.50;;;9.10;99.90;;;;;;10285836;28;20047;-87
2022/05/31 02:30:31;;;;;;;0.75;0.40;;;9.10;99.90;;;;;;10274583;28;20062;-87
2022/05/31 02:35:33;;;;;;;1.48;0.40;;;9.10;99.90;;;;;;10300720;28;20054;-86
2022/05/31 02:40:35;;;;;;;0.50;0.40;;;9.10;99.90;;;;;;10301502;28;20360;-86
2022/05/31 02:45:37;;;;;;;0.77;0.60;;;9.20;99.90;;;;;;10290902;28;20050;-86
2022/05/31 02:50:40;;;;;;;2.28;0.40;;;9.10;99.90;;;;;;10260547;28;20559;-87
2022/05/31 02:55:42;;;;;;;2.80;0.50;;;9.10;99.90;;;;;;10300975;28;20117;-86
2022/05/31 03:00:44;;;;;;;0.77;0.50;;;9.00;99.90;;;;;;10286670;28;20050;-86
2022/05/31 03:05:47;;;;;;;3.88;0.40;;;9.00;99.90;;;;;;10276395;28;20050;-85
2022/05/31 03:10:52;;;;;;;3.53;0.50;;;9.00;99.90;;;;;;10268128;28;20039;-86
2022/05/31 03:15:59;;;;;;;1.10;0.47;;;9.00;99.90;;;;;;10302416;28;20464;-86
2022/05/31 03:21:10;;;;;;;3.20;0.53;;;9.00;99.90;;;;;;10285955;28;20054;-87
2022/05/31 03:26:16;;;;;;;1.42;0.70;;;8.90;99.90;;;;;;10291986;28;20054;-88
2022/05/31 03:31:18;;;;;;;2.92;0.80;;;8.90;99.90;;;;;;10288941;28;20058;-87
2022/05/31 03:36:20;;;;;;;1.58;0.60;;;8.90;99.90;;;;;;10245369;28;20043;-87
2022/05/31 03:41:22;;;;;;;1.75;0.60;;;8.90;99.90;;;;;;10301912;28;20560;-87
2022/05/31 03:46:24;;;;;;;2.78;0.60;;;8.90;99.90;;;;;;10303355;28;20052;-88
2022/05/31 03:51:27;;;;;;;1.40;0.70;;;8.90;99.90;;;;;;10294988;28;20142;-87
2022/05/31 03:56:29;;;;;;;5.63;0.60;;;8.90;99.90;;;;;;10255351;28;20042;-87
2022/05/31 04:01:31;;;;;;;1.63;0.57;;;8.80;99.90;;;;;;10283494;28;20056;-87
2022/05/31 04:06:35;;;;;;;1.40;0.50;;;8.70;99.90;;;;;;10290925;28;20051;-87
2022/05/31 04:11:36;;;;;;;2.80;0.50;;;8.80;99.90;;;;;;10304529;28;20130;-87
2022/05/31 04:16:38;;;;;;;1.00;0.60;;;8.90;99.90;;;;;;10290833;28;20061;-86
2022/05/31 04:21:40;;;;;;;2.00;0.47;;;8.90;99.90;;;;;;10289189;28;20074;-86
2022/05/31 04:26:45;;;;;;;1.13;0.40;;;9.00;99.90;;;;;;10310465;28;20050;-87
2022/05/31 04:31:48;;;;;;;3.20;0.88;;;9.00;99.90;;;;;;10297430;28;20058;-87
2022/05/31 04:36:50;;;;;;;3.42;0.70;;;9.10;99.90;;;;;;10300142;28;20046;-88
2022/05/31 04:41:52;;;;;;;3.03;0.70;;;9.10;99.90;;;;;;10301926;28;20054;-85
2022/05/31 04:46:54;;;;;;;2.22;0.68;;;9.20;99.90;;;;;;10303579;28;20551;-85
2022/05/31 04:51:56;;;;;;;2.75;0.68;;;9.20;99.90;;;;;;10290876;28;20046;-85
2022/05/31 04:57:01;;;;;;;2.47;0.60;;;9.30;99.90;;;;;;10299426;28;21190;-86
2022/05/31 05:02:04;;;;;;;1.88;0.60;;;9.50;99.90;;;;;;10296380;28;20065;-87
2022/05/31 05:07:06;;;;;;;2.13;0.52;;;9.60;99.90;;;;;;10305502;28;20054;-86
2022/05/31 05:12:08;;;;;;;2.00;0.50;;;9.60;99.90;;;;;;10302502;28;20141;-86
2022/05/31 05:17:14;;;;;;;2.85;0.90;;;9.70;99.90;;;;;;10307198;28;20069;-87
2022/05/31 05:22:16;;;;;;;3.50;0.77;;;9.80;99.90;;;;;;10300197;28;20081;-87
2022/05/31 05:27:18;;;;;;;1.15;0.70;;;9.90;99.90;;;;;;10280101;28;20050;-87
2022/05/31 05:32:20;;;;;;;1.85;1.00;;;9.90;99.90;;;;;;10273507;28;20643;-86
2022/05/31 05:37:22;;;;;;;2.58;0.60;;;10.00;99.90;;;;;;10305489;28;20050;-86
2022/05/31 05:42:24;;;;;;;2.78;0.50;;;10.10;99.90;;;;;;10291248;28;20047;-87
2022/05/31 05:47:26;;;;;;;1.73;0.50;;;10.20;99.90;;;;;;10297192;28;20059;-86
2022/05/31 05:52:29;;;;;;;1.45;0.70;;;10.40;99.90;;;;;;10290998;28;21361;-86
2022/05/31 05:57:31;;;;;;;2.15;0.60;;;10.50;99.90;;;;;;10287858;28;20058;-87
2022/05/31 06:02:35;;;;;;;3.63;1.20;;;10.80;99.90;;;;;;10296072;28;20448;-88
2022/05/31 06:08:01;;;;;;;1.38;0.40;;;10.90;99.90;;;;;;10285805;28;20069;-89
2022/05/31 06:13:13;;;;;;;1.63;0.50;;;11.10;99.90;;;;;;10293796;28;20058;-87
2022/05/31 06:18:22;;;;;;;3.70;0.50;;;11.50;99.90;;;;;;10288032;28;20049;-86
2022/05/31 06:23:24;;;;;;;3.72;0.40;;;11.80;99.90;;;;;;10293225;28;20101;-87
2022/05/31 06:28:26;;;;;;;2.97;0.45;;;12.10;99.90;;;;;;10276560;28;20133;-87
2022/05/31 06:33:28;;;;;;;0.93;0.40;;;12.30;99.90;;;;;;10249618;28;20096;-87
2022/05/31 06:38:30;;;;;;;4.15;0.40;;;12.50;99.90;;;;;;10269687;28;20485;-87
2022/05/31 06:43:32;;;;;;;1.30;0.40;;;12.70;99.90;;;;;;10268241;28;20051;-87
2022/05/31 06:48:34;;;;;;;0.98;0.40;;;12.90;99.90;;;;;;10273610;28;20078;-87
2022/05/31 06:58:57;;;;;;;2.58;0.40;;;13.10;99.10;;;;;;10276030;28;20110;-88
2022/05/31 07:03:59;;;;;;;4.57;0.50;;;13.20;98.90;;;;;;10246780;28;20524;-88
2022/05/31 07:09:01;;;;;;;1.65;0.40;;;13.40;99.50;;;;;;10248018;28;20106;-88
2022/05/31 07:14:03;;;;;;;1.05;0.43;;;13.50;98.80;;;;;;10265385;28;20038;-88
2022/05/31 07:19:05;;;;;;;0.65;0.40;;;13.60;99.30;;;;;;10254711;28;20424;-88
2022/05/31 07:24:07;;;;;;;1.15;0.40;;;13.70;98.50;;;;;;10270937;28;20051;-88
2022/05/31 07:29:09;;;;;;;2.92;0.40;;;13.90;98.00;;;;;;10260792;28;20063;-88
2022/05/31 07:34:15;;;;;;;1.27;0.30;;;14.10;96.80;;;;;;10264612;28;20283;-88
2022/05/31 07:39:19;;;;;;;4.83;0.30;;;14.30;95.80;;;;;;10265308;28;20050;-87
2022/05/31 07:44:22;;;;;;;2.10;0.40;;;14.50;94.10;;;;;;10266645;28;20046;-87
2022/05/31 07:49:24;;;;;;;2.33;0.30;;;14.80;93.70;;;;;;10250480;28;20557;-88
2022/05/31 07:54:29;;;;;;;1.73;0.88;;;15.20;91.90;;;;;;10248298;28;20054;-87
2022/05/31 07:59:33;;;;;;;1.85;0.30;;;15.20;90.60;;;;;;10253756;28;20059;-87
2022/05/31 08:04:35;;;;;;;0.90;0.30;;;15.40;91.20;;;;;;10273281;28;20105;-88
2022/05/31 08:09:36;;;;;;;0.75;0.28;;;15.60;90.20;;;;;;10250919;28;20054;-87
2022/05/31 08:14:38;;;;;;;11.10;0.50;;;15.90;90.30;;;;;;10255205;28;20556;-88
2022/05/31 08:19:40;;;;;;;0.70;0.40;;;16.10;88.80;;;;;;10264789;28;20054;-86
2022/05/31 08:24:42;;;;;;;0.60;0.30;;;16.20;87.20;;;;;;10266014;28;20089;-87
2022/05/31 08:29:45;;;;;;;2.00;0.50;;;16.30;86.70;;;;;;10260389;28;20130;-86
2022/05/31 08:34:54;;;;;;;1.92;0.43;;;16.40;86.50;;;;;;10264927;28;20090;-90
2022/05/31 08:39:57;;;;;;;1.80;0.43;;;16.50;86.50;;;;;;10267800;28;20138;-86
2022/05/31 08:45:03;;;;;;;1.40;0.30;;;16.40;85.80;;;;;;10273858;28;20057;-87
2022/05/31 09:01:17;;;;;;;0.50;0.40;;;17.20;84.50;;;;;;10266377;28;20588;-88
2022/05/31 09:06:28;;;;;;;2.13;0.40;;;17.10;81.60;;;;;;10286935;28;20058;-88
2022/05/31 09:11:41;;;;;;;2.55;0.40;;;17.20;84.70;;;;;;10271606;28;20090;-88
2022/05/31 09:16:52;;;;;;;2.45;0.30;;;17.20;80.40;;;;;;10270837;28;20064;-88
2022/05/31 09:21:53;;;;;;;2.65;0.38;;;17.20;81.40;;;;;;10280963;28;20584;-88
2022/05/31 09:27:11;;;;;;;1.95;0.50;;;17.30;82.20;;;;;;10294257;28;20112;-88
2022/05/31 09:32:41;;;;;;;4.95;0.68;;;17.40;79.60;;;;;;10300698;28;20591;-88
2022/05/31 09:37:54;;;;;;;2.72;0.50;;;17.40;82.70;;;;;;10280966;28;20104;-88
2022/05/31 09:43:07;;;;;;;3.55;0.57;;;17.90;80.40;;;;;;10309409;28;20042;-87
2022/05/31 09:48:09;;;;;;;4.35;0.55;;;17.90;77.70;;;;;;10277754;28;20546;-88
2022/05/31 09:58:36;;;;;;;1.35;0.50;;;18.30;77.20;;;;;;10293545;28;20098;-87
2022/05/31 10:03:59;;;;;;;0.88;0.57;;;18.20;76.50;;;;;;10293978;28;20085;-88
2022/05/31 10:09:16;;;;;;;0.88;0.40;;;18.50;79.10;;;;;;10301544;28;20046;-87
2022/05/31 10:14:31;;;;;;;3.05;0.32;;;18.50;76.90;;;;;;10294255;28;20453;-87
2022/05/31 10:19:32;;;;;;;2.45;0.55;;;18.70;78.60;;;;;;10278470;28;20065;-87
2022/05/31 10:24:34;;;;;;;0.57;0.30;;;18.80;76.50;;;;;;10316033;28;20471;-87
2022/05/31 10:29:51;;;;;;;2.10;0.68;;;19.40;76.60;;;;;;10272511;28;20050;-90
2022/05/31 10:35:11;;;;;;;;;;;19.90;74.30;;;;;;10270861;28;20138;-88
2022/05/31 10:40:18;;;;;;;2.30;0.40;;;20.10;69.80;;;;;;10255042;28;19970;-88
2022/05/31 10:45:31;;;;;;;1.25;0.50;;;20.30;70.60;;;;;;10273324;28;20050;-88
2022/05/31 10:51:11;;;;;;;3.50;0.50;;;21.20;68.80;;;;;;10278248;28;20055;-90
2022/05/31 10:56:20;;;;;;;1.65;0.45;;;20.90;66.60;;;;;;10253804;28;20043;-88
2022/05/31 11:01:49;;;;;;;4.78;0.30;;;20.60;63.50;;;;;;10270869;28;20051;-88
2022/05/31 11:07:28;;;;;;;3.55;0.70;;;20.50;65.80;;;;;;10260696;28;20130;-88
2022/05/31 11:12:53;;;;;;;0.95;0.60;;;20.40;62.40;;;;;;10259145;28;20057;-88
2022/05/31 11:18:39;;;;;;;1.95;0.60;;;20.20;62.10;;;;;;10252418;28;20138;-88
2022/05/31 11:24:20;;;;;;;4.22;0.40;;;20.40;62.00;;;;;;10262056;28;20067;-88
2022/05/31 11:29:35;;;;;;;0.98;0.38;;;20.50;61.00;;;;;;10266525;28;20049;-89
2022/05/31 11:35:03;;;;;;;1.88;0.40;;;20.50;59.40;;;;;;10266616;28;20053;-89
2022/05/31 11:40:10;;;;;;;0.98;0.40;;;20.70;56.60;;;;;;10279627;28;20051;-90
2022/05/31 11:45:34;;;;;;;5.35;0.90;;;21.50;59.00;;;;;;10269636;28;20082;-89
2022/05/31 11:50:52;;;;;;;0.45;0.30;;;21.70;57.10;;;;;;10272282;28;20501;-89
2022/05/31 11:56:02;;;;;;;1.75;0.40;;;22.40;55.50;;;;;;10264640;28;20128;-89
2022/05/31 12:01:24;;;;;;;3.10;0.80;;;22.50;53.70;;;;;;10267754;28;20054;-89
2022/05/31 12:06:36;;;;;;;2.92;0.32;;;23.00;51.80;;;;;;10264346;28;20153;-89
2022/05/31 12:11:46;;;;;;;5.18;0.32;;;23.40;52.00;;;;;;10259752;28;20059;-90
2022/05/31 12:16:49;;;;;;;1.17;0.30;;;23.00;50.60;;;;;;10250907;28;20069;-89
2022/05/31 12:21:59;;;;;;;1.23;0.50;;;22.90;50.80;;;;;;10248766;28;20090;-89
2022/05/31 12:27:15;;;;;;;1.42;0.30;;;22.30;49.40;;;;;;10281255;28;20046;-90
2022/05/31 12:32:35;;;;;;;3.13;0.22;;;22.60;46.30;;;;;;10276612;28;20052;-89
2022/05/31 12:38:09;;;;;;;0.70;0.30;;;22.70;47.90;;;;;;10295829;28;20456;-90
2022/05/31 12:43:32;;;;;;;2.90;0.20;;;22.80;47.40;;;;;;10294417;28;20077;-90
2022/05/31 12:48:46;;;;;;;1.20;0.57;;;22.40;44.10;;;;;;10285360;28;20053;-90
2022/05/31 12:53:58;;;;;;;2.15;0.20;;;22.70;44.40;;;;;;10280930;28;20392;-89
2022/05/31 12:59:02;;;;;;;0.80;0.20;;;23.00;44.20;;;;;;10296807;28;20061;-89
2022/05/31 13:04:20;;;;;;;1.38;0.43;;;22.90;42.80;;;;;;10310738;28;20101;-89
2022/05/31 13:09:25;;;;;;;0.63;0.30;;;22.50;44.80;;;;;;10269201;28;20138;-89
2022/05/31 13:19:58;;;;;;;0.68;0.20;;;22.80;50.00;;;;;;10284742;28;20082;-89
2022/05/31 13:25:05;;;;;;;6.05;0.30;;;22.90;50.00;;;;;;10305870;28;20055;-89
2022/05/31 13:30:17;;;;;;;2.25;0.20;;;23.40;47.80;;;;;;10303929;28;20058;-89
2022/05/31 13:35:25;;;;;;;1.42;0.20;;;24.10;46.50;;;;;;10290090;28;20054;-89
2022/05/31 13:40:51;;;;;;;1.67;0.10;;;24.50;44.40;;;;;;10275534;28;20569;-88
2022/05/31 13:45:57;;;;;;;1.20;0.20;;;25.10;44.00;;;;;;10286035;28;20078;-89
2022/05/31 13:51:02;;;;;;;0.20;0.17;;;24.70;41.50;;;;;;10295574;28;20054;-88
2022/05/31 13:56:05;;;;;;;0.85;0.20;;;24.30;43.30;;;;;;10272462;28;20047;-90
2022/05/31 14:01:46;;;;;;;0.40;0.10;;;24.10;44.00;;;;;;10283720;28;20137;-89
2022/05/31 14:06:50;;;;;;;1.60;0.30;;;23.90;38.30;;;;;;10297440;28;20050;-89
2022/05/31 14:12:07;;;;;;;0.77;0.20;;;23.40;47.40;;;;;;10269969;28;20035;-88
2022/05/31 14:17:09;;;;;;;;;;;23.20;39.80;;;;;;10304461;28;20061;-88
2022/05/31 14:22:20;;;;;;;2.10;0.30;;;22.80;48.50;;;;;;10289498;28;19926;-88
2022/05/31 14:27:24;;;;;;;1.50;0.20;;;22.30;50.00;;;;;;10288848;28;20051;-89
2022/05/31 14:32:32;;;;;;;0.60;0.20;;;22.10;50.60;;;;;;10313115;28;20401;-90
2022/05/31 14:37:38;;;;;;;1.92;0.20;;;21.90;49.70;;;;;;10296249;28;20050;-90
2022/05/31 14:42:41;;;;;;;;;;;22.10;44.10;;;;;;10289539;28;20050;-89
2022/05/31 14:47:43;;;;;;;1.40;0.30;;;21.90;44.20;;;;;;10272962;28;20431;-88
2022/05/31 14:52:51;;;;;;;0.98;0.30;;;21.90;44.90;;;;;;10288055;28;20109;-88
2022/05/31 15:03:38;;;;;;;1.10;0.20;;;21.70;46.10;;;;;;10286243;28;20037;-89
2022/05/31 15:08:44;;;;;;;1.60;0.15;;;21.40;47.10;;;;;;10286249;28;20432;-88
2022/05/31 15:19:28;;;;;;;0.30;0.20;;;22.00;47.00;;;;;;10299230;28;20087;-88
2022/05/31 15:24:34;;;;;;;0.20;0.10;;;22.00;50.90;;;;;;10288978;28;20061;-87
2022/05/31 15:29:35;;;;;;;0.30;0.17;;;22.20;53.00;;;;;;10269730;28;20121;-88
2022/05/31 15:34:37;;;;;;;2.00;0.17;;;22.10;52.30;;;;;;10295421;28;20078;-88
2022/05/31 15:39:40;;;;;;;2.22;0.20;;;22.30;53.00;;;;;;10290735;28;20058;-88
2022/05/31 15:44:52;;;;;;;0.28;0.20;;;21.40;53.20;;;;;;10290838;28;20053;-92
2022/05/31 15:49:56;;;;;;;0.80;0.30;;;21.00;55.10;;;;;;10292865;28;20133;-89
2022/05/31 15:55:09;;;;;;;0.52;0.45;;;20.50;56.50;;;;;;10287492;28;20137;-90
2022/05/31 16:00:25;;;;;;;0.30;0.20;;;20.40;57.30;;;;;;10277221;28;20048;-89
2022/05/31 16:05:27;;;;;;;0.20;0.15;;;20.60;58.60;;;;;;10287462;28;20052;-90
2022/05/31 16:10:30;;;;;;;0.52;0.20;;;21.20;56.40;;;;;;10296358;28;20053;-90
2022/05/31 16:15:32;;;;;;;2.58;0.43;;;21.80;54.50;;;;;;10290614;28;20066;-89
2022/05/31 16:20:40;;;;;;;0.65;0.20;;;22.30;51.80;;;;;;10292120;28;20050;-89
2022/05/31 16:25:41;;;;;;;1.45;0.20;;;22.50;52.20;;;;;;10293555;28;20165;-88
2022/05/31 16:30:49;;;;;;;0.95;0.30;;;22.70;51.40;;;;;;10283639;28;20049;-88
2022/05/31 16:35:55;;;;;;;0.32;0.10;;;23.10;49.60;;;;;;10271459;28;20118;-88
2022/05/31 16:41:10;;;;;;;0.73;0.20;;;23.80;50.80;;;;;;10281082;28;20055;-88
2022/05/31 16:46:14;;;;;;;1.33;0.10;;;23.40;49.60;;;;;;10274892;28;20082;-88
2022/05/31 16:51:27;;;;;;;0.17;0.17;;;23.60;48.50;;;;;;10292424;28;20066;-88
2022/05/31 16:56:39;;;;;;;0.52;0.10;;;23.80;47.40;;;;;;10314961;28;20576;-88
2022/05/31 17:01:42;;;;;;;0.57;0.13;;;24.30;47.90;;;;;;10317383;28;20054;-88
2022/05/31 17:17:27;;;;;;;0.28;0.20;;;23.20;48.10;;;;;;10328167;28;20046;-87
2022/05/31 17:22:29;;;;;;;3.42;0.22;;;22.70;49.90;;;;;;10328336;28;20050;-87
2022/05/31 17:27:31;;;;;;;0.40;0.20;;;23.50;50.00;;;;;;10327966;28;20053;-86
2022/05/31 17:32:33;;;;;;;0.25;0.17;;;23.50;49.90;;;;;;10340808;28;20091;-86
2022/05/31 17:37:35;;;;;;;0.35;0.17;;;23.40;49.70;;;;;;10334376;28;20476;-86
2022/05/31 17:42:37;;;;;;;1.95;0.20;;;23.20;49.80;;;;;;10329444;28;20065;-86
2022/05/31 17:47:41;;;;;;;0.40;0.20;;;23.40;49.20;;;;;;10345572;28;20065;-87
2022/05/31 17:52:43;;;;;;;1.65;0.20;;;23.30;49.50;;;;;;10331602;28;20109;-89
2022/05/31 17:57:45;;;;;;;0.30;0.20;;;23.80;49.80;;;;;;10312801;28;20053;-86
2022/05/31 18:02:47;;;;;;;1.10;0.30;;;23.70;49.00;;;;;;10301581;28;20054;-89
2022/05/31 18:07:48;;;;;;;3.60;0.30;;;23.50;48.40;;;;;;10319941;28;20046;-89
2022/05/31 18:12:52;;;;;;;1.55;0.80;;;23.50;49.30;;;;;;10316896;28;20496;-88
2022/05/31 18:17:54;;;;;;;1.30;1.10;;;22.90;50.40;;;;;;10311162;28;20503;-87
2022/05/31 18:22:57;;;;;;;0.60;0.40;;;22.50;51.70;;;;;;10304538;28;20106;-87
2022/05/31 18:33:21;;;;;;;0.70;0.40;;;21.40;53.70;;;;;;10271966;28;20061;-87
2022/05/31 18:38:44;;;;;;;1.80;0.30;;;21.10;55.20;;;;;;10290045;28;20442;-87
2022/05/31 18:43:47;;;;;;;0.40;0.30;;;20.70;55.70;;;;;;10290013;28;20042;-87
2022/05/31 18:48:51;;;;;;;2.38;0.50;;;20.50;57.40;;;;;;10289824;28;20096;-87
2022/05/31 18:53:54;;;;;;;2.15;0.70;;;20.20;59.10;;;;;;10276613;28;20089;-87
2022/05/31 18:58:56;;;;;;;0.80;0.30;;;20.00;59.30;;;;;;10305053;28;20135;-87
2022/05/31 19:03:59;;;;;;;1.77;0.40;;;19.70;60.20;;;;;;10279303;28;20043;-88
2022/05/31 19:09:02;;;;;;;2.10;0.50;;;19.50;61.60;;;;;;10280881;28;20067;-88
2022/05/31 19:14:04;;;;;;;0.50;0.30;;;19.20;62.60;;;;;;10264981;28;20053;-88
2022/05/31 19:19:08;;;;;;;0.55;0.30;;;19.00;63.80;;;;;;10231746;28;20046;-88
2022/05/31 19:24:11;;;;;;;1.55;0.20;;;18.70;64.40;;;;;;10301707;28;20086;-87
2022/05/31 19:29:13;;;;;;;1.50;0.30;;;18.50;65.30;;;;;;10303724;28;20540;-87
2022/05/31 19:34:40;;;;;;;0.82;0.30;;;18.30;66.00;;;;;;10298794;28;20058;-87
2022/05/31 19:39:44;;;;;;;1.88;0.55;;;18.20;66.40;;;;;;10294495;28;20076;-86
2022/05/31 19:44:46;;;;;;;2.85;0.63;;;17.80;67.90;;;;;;10294558;28;20066;-87
2022/05/31 19:49:48;;;;;;;4.93;0.52;;;17.60;68.90;;;;;;10300996;28;20050;-87
2022/05/31 19:54:50;;;;;;;1.70;0.70;;;17.50;69.70;;;;;;10285385;28;20125;-86
2022/05/31 19:59:52;;;;;;;2.35;0.50;;;17.20;70.60;;;;;;10297761;28;20084;-86
2022/05/31 20:04:53;;;;;;;1.08;0.50;;;17.00;72.00;;;;;;10301325;28;20133;-86
2022/05/31 20:10:05;;;;;;;2.60;0.63;;;16.80;72.80;;;;;;10286597;28;20501;-86
2022/05/31 20:15:19;;;;;;;0.80;0.40;;;16.50;75.70;;;;;;10272039;28;20124;-85
2022/05/31 20:20:21;;;;;;;0.77;0.50;;;16.50;76.40;;;;;;10287321;28;20053;-86
2022/05/31 20:25:23;;;;;;;2.58;0.40;;;16.30;80.00;;;;;;10307069;28;20600;-86
2022/05/31 20:30:26;;;;;;;2.05;0.50;;;16.10;80.60;;;;;;10307091;28;20114;-87
2022/05/31 20:35:28;;;;;;;1.10;0.47;;;16.00;82.00;;;;;;10287389;28;20133;-86
2022/05/31 20:40:30;;;;;;;3.83;0.60;;;15.80;83.50;;;;;;10274874;28;22968;-86
2022/05/31 20:45:33;;;;;;;1.45;0.40;;;15.60;83.90;;;;;;10302854;28;20069;-85
2022/05/31 20:50:35;;;;;;;1.80;0.40;;;15.50;85.30;;;;;;10306938;28;20054;-86
2022/05/31 20:55:37;;;;;;;1.90;0.47;;;15.40;86.60;;;;;;10300758;28;20117;-86
2022/05/31 21:00:38;;;;;;;2.22;0.57;;;15.10;88.70;;;;;;10301774;28;20054;-88
2022/05/31 21:05:41;;;;;;;1.35;0.68;;;14.90;89.80;;;;;;10306992;28;20046;-86
2022/05/31 21:10:43;;;;;;;1.30;0.50;;;14.80;90.60;;;;;;10313926;28;20522;-86
2022/05/31 21:15:46;;;;;;;6.93;0.80;;;14.50;91.20;;;;;;10286236;28;20422;-87
2022/05/31 21:20:50;;;;;;;0.98;0.47;;;14.40;91.00;;;;;;10303266;28;20497;-87
2022/05/31 21:25:53;;;;;;;3.03;1.00;;;14.30;91.40;;;;;;10297218;28;20125;-86
2022/05/31 21:30:55;;;;;;;1.65;0.55;;;14.20;92.20;;;;;;10294886;28;20081;-86
2022/05/31 21:35:57;;;;;;;3.53;0.60;;;14.10;94.40;;;;;;10306970;28;20062;-86
2022/05/31 21:41:09;;;;;;;2.78;0.40;;;13.90;96.20;;;;;;10297564;28;20054;-86
2022/05/31 21:46:10;;;;;;;0.95;0.50;;;13.70;96.80;;;;;;10295293;28;20085;-86
2022/05/31 21:51:13;;;;;;;1.33;0.40;;;13.70;97.40;;;;;;10312539;28;20058;-87
2022/05/31 21:56:22;;;;;;;1.65;0.45;;;13.50;99.10;;;;;;10303621;28;20117;-87
2022/05/31 22:01:25;;;;;;;1.00;0.40;;;13.40;99.90;;;;;;10275113;28;20069;-86
2022/05/31 22:06:29;;;;;;;0.93;0.80;;;13.40;99.90;;;;;;10303401;28;20044;-86
2022/05/31 22:11:33;;;;;;;1.60;0.70;;;13.20;99.90;;;;;;10301525;28;20117;-87
2022/05/31 22:16:35;;;;;;;0.82;0.50;;;13.10;99.90;;;;;;10282661;28;20077;-86
2022/05/31 22:21:38;;;;;;;1.95;0.50;;;13.00;99.90;;;;;;10293786;28;20073;-86
2022/05/31 22:26:41;;;;;;;2.55;0.50;;;12.90;99.90;;;;;;10279734;28;20141;-86
2022/05/31 22:31:43;;;;;;;1.10;0.60;;;12.80;99.90;;;;;;10305689;28;20061;-86
2022/05/31 22:36:45;;;;;;;1.95;0.77;;;12.70;99.90;;;;;;10289248;28;20059;-86
2022/05/31 22:41:47;;;;;;;4.18;0.60;;;12.70;99.90;;;;;;10272246;28;20046;-87
2022/05/31 22:46:49;;;;;;;1.45;0.63;;;12.60;99.90;;;;;;10295098;28;20050;-86
2022/05/31 22:51:51;;;;;;;1.52;0.60;;;12.50;99.90;;;;;;10291024;28;20055;-86
2022/05/31 22:56:53;;;;;;;1.67;0.57;;;12.50;99.90;;;;;;10293978;28;20052;-86
2022/05/31 23:01:55;;;;;;;0.85;0.40;;;12.40;99.90;;;;;;10297125;28;20594;-86
2022/05/31 23:06:58;;;;;;;2.42;0.55;;;12.30;99.90;;;;;;10282743;28;20057;-86
2022/05/31 23:12:00;;;;;;;2.20;0.50;;;12.20;99.90;;;;;;10285705;28;20046;-86
2022/05/31 23:17:03;;;;;;;2.05;0.80;;;12.20;99.90;;;;;;10284015;28;20061;-86
2022/05/31 23:27:27;;;;;;;1.00;0.60;;;12.30;99.90;;;;;;10294459;28;20401;-86
2022/05/31 23:32:30;;;;;;;1.48;0.50;;;12.20;99.90;;;;;;10290397;28;20050;-86
2022/05/31 23:37:32;;;;;;;1.38;0.70;;;12.20;99.90;;;;;;10298734;28;20046;-86
2022/05/31 23:42:33;;;;;;;0.80;0.50;;;12.10;99.90;;;;;;10278391;28;20056;-86
2022/05/31 23:47:35;;;;;;;1.00;0.60;;;12.10;99.90;;;;;;10272230;28;20486;-86
2022/05/31 23:52:37;;;;;;;3.05;0.47;;;12.00;99.90;;;;;;10298032;28;20038;-86
2022/05/31 23:57:39;;;;;;;1.63;0.52;;;12.00;99.90;;;;;;10291271;28;20412;-86
